Time;durP1;ratioP1;P1;durP2;ratioP2;P2;SDS_P1;SDS_P2;PMS_P1;PMS_P2;Temp;Humidity;BMP_temperature;BMP_pressure;BME280_temperature;BME280_humidity;BME280_pressure;Samples;Min_cycle;Max_cycle;Signal;HPM_P1;HPM_P2
2021/07/26 00:01:51;;;;;;;0.10;0.10;;;;;;;16.77;93.87;101053.66;10409696;28;20496;-62
2021/07/26 00:06:51;;;;;;;0.25;0.17;;;;;;;16.97;93.68;101043.91;10408140;28;20037;-63
2021/07/26 00:11:52;;;;;;;0.00;0.00;;;;;;;17.04;93.05;101042.06;10406711;28;20042;-62
2021/07/26 00:16:52;;;;;;;0.10;0.10;;;;;;;17.04;92.47;101042.06;10409878;28;20124;-63
2021/07/26 00:21:53;;;;;;;0.00;0.00;;;;;;;16.90;90.56;101048.38;10409603;28;20036;-62
2021/07/26 00:26:53;;;;;;;0.10;0.10;;;;;;;16.50;90.65;101061.47;10409656;28;20451;-63
2021/07/26 00:31:54;;;;;;;0.00;0.00;;;;;;;16.13;90.56;101065.22;10387849;28;20057;-63
2021/07/26 00:36:56;;;;;;;0.00;0.00;;;;;;;16.00;92.65;101064.06;10378781;28;20040;-63
2021/07/26 00:41:57;;;;;;;0.00;0.00;;;;;;;16.06;93.32;101057.09;10380697;28;20056;-63
2021/07/26 00:46:58;;;;;;;0.00;0.00;;;;;;;16.15;93.79;101049.75;10379984;28;20112;-62
2021/07/26 00:51:59;;;;;;;0.10;0.10;;;;;;;16.10;92.33;101053.00;10367667;28;20104;-62
2021/07/26 00:57:02;;;;;;;0.10;0.10;;;;;;;15.79;90.44;101055.94;10368361;28;20112;-62
2021/07/26 01:02:03;;;;;;;0.00;0.00;;;;;;;15.51;91.41;101051.22;10367113;28;20036;-62
2021/07/26 01:07:04;;;;;;;0.10;0.10;;;;;;;15.49;93.97;101047.88;10367442;28;20034;-63
2021/07/26 01:12:05;;;;;;;0.10;0.10;;;;;;;15.53;93.83;101032.22;10423954;23;20189;-63
2021/07/26 01:17:08;;;;;;;0.00;0.00;;;;;;;15.47;93.44;101043.72;10451826;28;20045;-61
2021/07/26 01:22:08;;;;;;;0.10;0.10;;;;;;;15.45;94.13;101049.28;10466786;28;20028;-62
2021/07/26 01:27:09;;;;;;;0.00;0.00;;;;;;;15.52;94.83;101054.72;10441876;28;20495;-62
2021/07/26 01:32:09;;;;;;;0.10;0.10;;;;;;;15.45;93.74;101053.81;10450932;28;20029;-63
2021/07/26 01:37:09;;;;;;;0.10;0.10;;;;;;;15.30;93.84;101059.16;10451099;28;20044;-62
2021/07/26 01:42:09;;;;;;;0.10;0.10;;;;;;;15.36;95.68;101059.28;10446930;28;20387;-62
2021/07/26 01:47:13;;;;;;;0.10;0.10;;;;;;;15.40;95.71;101060.56;10409857;28;20025;-62
2021/07/26 01:52:15;;;;;;;0.10;0.10;;;;;;;15.34;95.28;101073.91;10409467;28;20257;-62
2021/07/26 01:57:16;;;;;;;0.10;0.10;;;;;;;15.28;95.33;101075.47;10408765;28;20060;-62
2021/07/26 02:02:16;;;;;;;0.00;0.00;;;;;;;15.30;95.41;101076.13;10408478;28;20032;-62
2021/07/26 02:07:17;;;;;;;0.10;0.10;;;;;;;15.27;94.86;101086.38;10409177;28;20536;-63
2021/07/26 02:12:17;;;;;;;0.10;0.10;;;;;;;15.04;93.15;101086.41;10408424;28;20278;-63
2021/07/26 02:17:17;;;;;;;0.10;0.10;;;;;;;15.01;95.12;101086.78;10408672;28;20056;-62
2021/07/26 02:22:19;;;;;;;0.10;0.10;;;;;;;15.09;95.31;101089.41;10408233;28;20488;-62
2021/07/26 02:27:19;;;;;;;0.10;0.10;;;;;;;15.02;95.01;101083.13;10406952;28;20029;-62
2021/07/26 02:32:19;;;;;;;0.10;0.10;;;;;;;15.00;95.63;101077.09;10423399;28;20116;-61
2021/07/26 02:37:20;;;;;;;0.10;0.10;;;;;;;15.12;95.88;101083.66;10408460;28;20056;-63
2021/07/26 02:42:20;;;;;;;0.10;0.10;;;;;;;15.17;96.34;101074.06;10407588;28;20495;-62
2021/07/26 02:47:20;;;;;;;0.10;0.10;;;;;;;15.16;96.24;101074.25;10418755;28;20148;-62
2021/07/26 02:52:20;;;;;;;0.10;0.10;;;;;;;15.10;95.35;101075.00;10412799;28;20330;-62
2021/07/26 02:57:21;;;;;;;0.10;0.10;;;;;;;15.10;95.33;101075.00;10406367;28;20033;-62
2021/07/26 03:02:21;;;;;;;0.10;0.10;;;;;;;15.09;94.95;101078.66;10406577;28;20021;-62
2021/07/26 03:07:21;;;;;;;0.10;0.10;;;;;;;14.83;91.94;101084.44;10448361;28;20036;-62
2021/07/26 03:12:21;;;;;;;0.10;0.10;;;;;;;14.64;94.03;101080.41;10448288;28;20488;-62
2021/07/26 03:17:25;;;;;;;0.00;0.00;;;;;;;14.70;94.60;101085.06;10445582;28;20033;-61
2021/07/26 03:22:49;;;;;;;0.10;0.10;;;;;;;14.49;92.71;101099.91;10431287;28;20021;-62
2021/07/26 03:27:49;;;;;;;0.10;0.10;;;;;;;14.42;95.63;101103.47;10427729;28;20063;-62
2021/07/26 03:32:50;;;;;;;0.10;0.10;;;;;;;14.81;97.65;101087.31;10419374;28;20518;-62
2021/07/26 03:37:52;;;;;;;0.10;0.10;;;;;;;15.05;97.23;101098.84;10411012;28;20188;-62
2021/07/26 03:42:52;;;;;;;0.10;0.10;;;;;;;15.17;97.00;101092.84;10412843;28;20057;-62
2021/07/26 03:47:56;;;;;;;0.10;0.10;;;;;;;15.36;96.92;101091.47;10414161;28;20053;-62
2021/07/26 03:52:58;;;;;;;0.10;0.10;;;;;;;15.77;95.58;101096.41;10385565;28;20033;-62
2021/07/26 03:57:59;;;;;;;0.10;0.10;;;;;;;16.41;92.36;101094.91;10440240;28;20060;-62
2021/07/26 04:08:28;;;;;;;0.00;0.00;;;;;;;17.84;89.17;101101.81;10454346;28;20080;-63
2021/07/26 04:13:29;;;;;;;0.10;0.10;;;;;;;18.83;87.85;101097.75;10448332;28;20037;-63
2021/07/26 04:18:29;;;;;;;0.10;0.10;;;;;;;19.59;84.94;101094.53;10429941;28;20037;-61
2021/07/26 04:23:29;;;;;;;0.00;0.00;;;;;;;19.41;84.61;101084.41;10453049;28;20035;-61
2021/07/26 04:28:29;;;;;;;0.10;0.10;;;;;;;19.08;86.28;101084.44;10421407;28;20032;-61
2021/07/26 04:33:30;;;;;;;0.10;0.10;;;;;;;18.84;87.23;101094.00;10452709;28;20025;-59
2021/07/26 04:38:31;;;;;;;0.00;0.00;;;;;;;18.63;89.05;101089.59;10452680;28;20029;-62
2021/07/26 04:43:31;;;;;;;0.10;0.10;;;;;;;18.52;89.05;101096.44;10453135;28;20033;-61
2021/07/26 04:48:32;;;;;;;0.00;0.00;;;;;;;18.45;89.30;101091.03;10448833;28;20434;-61
2021/07/26 04:53:33;;;;;;;0.10;0.10;;;;;;;18.37;88.47;101080.44;10451994;28;20082;-61
2021/07/26 04:58:34;;;;;;;0.08;0.08;;;;;;;18.38;89.50;101090.16;10415834;28;20458;-61
2021/07/26 05:03:34;;;;;;;0.10;0.10;;;;;;;18.54;89.82;101099.75;10429509;28;20035;-61
2021/07/26 05:08:34;;;;;;;0.10;0.10;;;;;;;18.73;90.10;101095.41;10451506;28;20107;-61
2021/07/26 05:13:34;;;;;;;0.10;0.10;;;;;;;18.88;89.67;101098.78;10465192;28;20025;-61
2021/07/26 05:18:35;;;;;;;0.00;0.00;;;;;;;18.91;88.39;101105.66;10451760;28;20451;-61
2021/07/26 05:23:35;;;;;;;0.00;0.00;;;;;;;18.90;88.28;101099.41;10450993;28;20029;-61
2021/07/26 05:28:35;;;;;;;0.00;0.00;;;;;;;18.93;88.45;101100.84;10414506;28;20065;-61
2021/07/26 05:33:36;;;;;;;0.00;0.00;;;;;;;18.95;87.61;101102.31;10405890;28;20040;-60
2021/07/26 05:38:36;;;;;;;0.00;0.00;;;;;;;19.02;87.71;101101.47;10428001;28;20045;-60
2021/07/26 05:43:37;;;;;;;0.00;0.00;;;;;;;19.04;87.34;101108.34;10395624;28;20476;-60
2021/07/26 05:48:37;;;;;;;0.00;0.00;;;;;;;19.07;86.92;101113.31;10391471;28;20465;-60
2021/07/26 05:53:38;;;;;;;0.10;0.10;;;;;;;19.12;87.34;101128.91;10409280;28;20022;-63
2021/07/26 05:58:42;;;;;;;0.00;0.00;;;;;;;19.18;86.57;101128.88;10407106;28;20496;-61
2021/07/26 06:03:42;;;;;;;0.00;0.00;;;;;;;19.32;86.71;101112.69;10407148;28;20029;-61
2021/07/26 06:08:43;;;;;;;0.00;0.00;;;;;;;19.57;86.43;101105.56;10407528;28;20033;-61
2021/07/26 06:13:43;;;;;;;0.10;0.10;;;;;;;19.94;85.37;101105.88;10425414;28;20017;-61
2021/07/26 06:18:43;;;;;;;0.10;0.10;;;;;;;20.31;83.79;101104.25;10408496;28;20072;-61
2021/07/26 06:23:44;;;;;;;0.00;0.00;;;;;;;20.74;83.16;101109.00;10408146;28;20370;-61
2021/07/26 06:28:44;;;;;;;0.10;0.10;;;;;;;21.88;79.85;101089.78;10406861;28;20099;-61
2021/07/26 06:33:44;;;;;;;0.00;0.00;;;;;;;23.20;74.79;101097.03;10408098;28;20033;-62
2021/07/26 06:38:44;;;;;;;0.00;0.00;;;;;;;24.18;71.59;101089.91;10407773;28;20073;-62
2021/07/26 06:43:45;;;;;;;0.00;0.00;;;;;;;24.17;70.36;101094.53;10407588;28;20026;-62
2021/07/26 06:48:46;;;;;;;0.10;0.10;;;;;;;24.26;68.96;101086.78;10433398;28;20071;-62
2021/07/26 06:53:46;;;;;;;0.10;0.10;;;;;;;24.53;67.78;101091.66;10448578;28;20037;-60
2021/07/26 06:58:46;;;;;;;0.10;0.10;;;;;;;26.17;64.29;101084.75;10410205;28;20283;-62
2021/07/26 07:03:47;;;;;;;0.10;0.10;;;;;;;27.34;60.17;101086.00;10406775;28;20560;-62
2021/07/26 07:08:47;;;;;;;0.00;0.00;;;;;;;27.40;58.15;101094.00;10407001;28;20046;-62
2021/07/26 07:13:52;;;;;;;0.10;0.10;;;;;;;27.13;59.58;101096.78;10420070;22;20042;-61
2021/07/26 07:18:55;;;;;;;0.10;0.10;;;;;;;26.57;60.88;101082.69;10369628;28;20042;-63
2021/07/26 07:24:00;;;;;;;0.10;0.10;;;;;;;26.21;63.15;101093.25;10372035;28;20115;-63
2021/07/26 07:29:00;;;;;;;0.10;0.10;;;;;;;26.05;63.46;101091.44;10374070;28;20034;-61
2021/07/26 07:34:01;;;;;;;0.10;0.10;;;;;;;25.87;64.41;101089.88;10373707;28;20033;-61
2021/07/26 07:39:01;;;;;;;0.10;0.10;;;;;;;25.72;62.37;101099.47;10372664;28;20038;-62
2021/07/26 07:44:02;;;;;;;0.10;0.10;;;;;;;25.58;62.70;101103.66;10405275;28;20028;-62
2021/07/26 07:49:05;;;;;;;0.10;0.10;;;;;;;25.39;60.33;101105.03;10386045;28;20030;-60
2021/07/26 07:54:06;;;;;;;0.10;0.10;;;;;;;25.18;62.08;101107.44;10368987;28;20038;-64
2021/07/26 07:59:07;;;;;;;0.10;0.10;;;;;;;25.08;63.52;101110.00;10369809;28;20049;-62
2021/07/26 08:04:08;;;;;;;0.10;0.10;;;;;;;25.02;63.20;101111.00;10386303;28;20082;-61
2021/07/26 08:09:09;;;;;;;0.00;0.00;;;;;;;24.92;63.45;101110.81;10401217;28;20037;-64
2021/07/26 08:14:10;;;;;;;0.10;0.10;;;;;;;24.95;62.82;101110.31;10377572;28;20034;-61
2021/07/26 08:19:10;;;;;;;0.10;0.10;;;;;;;25.15;62.52;101104.41;10369160;28;20041;-63
2021/07/26 08:24:10;;;;;;;0.10;0.10;;;;;;;25.16;62.96;101114.22;10360522;28;20022;-61
2021/07/26 08:29:11;;;;;;;0.00;0.00;;;;;;;25.00;62.51;101115.88;10391847;28;20477;-61
2021/07/26 08:34:11;;;;;;;0.00;0.00;;;;;;;25.02;63.01;101121.91;10397795;28;20031;-61
2021/07/26 08:39:11;;;;;;;0.00;0.00;;;;;;;25.24;63.58;101119.25;10409042;28;20075;-61
2021/07/26 08:44:12;;;;;;;0.10;0.10;;;;;;;25.64;62.97;101123.66;10379880;28;20345;-59
2021/07/26 08:49:14;;;;;;;0.10;0.10;;;;;;;26.33;58.93;101113.03;10369442;28;20041;-64
2021/07/26 08:54:15;;;;;;;0.10;0.10;;;;;;;26.70;59.34;101119.69;10367119;28;20041;-60
2021/07/26 08:59:15;;;;;;;0.10;0.10;;;;;;;26.97;58.37;101112.28;10367350;28;20034;-62
2021/07/26 09:04:16;;;;;;;0.10;0.10;;;;;;;27.32;56.99;101119.13;10391322;28;20025;-64
2021/07/26 09:09:17;;;;;;;0.10;0.10;;;;;;;27.25;56.42;101115.78;10406799;28;20030;-64
2021/07/26 09:14:39;;;;;;;0.00;0.00;;;;;;;27.23;58.51;101117.97;10379059;28;20030;-62
2021/07/26 09:19:56;;;;;;;0.00;0.00;;;;;;;28.14;54.91;101114.84;10400734;28;20453;-61
2021/07/26 09:25:22;;;;;;;0.10;0.10;;;;;;;27.89;53.38;101125.72;10407095;28;20021;-62
2021/07/26 09:30:23;;;;;;;0.00;0.00;;;;;;;27.30;55.54;101126.75;10403297;28;20044;-61
2021/07/26 09:35:25;;;;;;;0.10;0.10;;;;;;;26.62;54.31;101135.47;10406350;28;20033;-63
2021/07/26 09:40:32;;;;;;;0.05;0.05;;;;;;;26.52;56.85;101140.00;10381223;28;20360;-63
2021/07/26 09:45:32;;;;;;;0.10;0.10;;;;;;;26.28;57.05;101140.28;10396140;28;20040;-65
2021/07/26 09:50:37;;;;;;;0.00;0.00;;;;;;;26.26;59.97;101141.63;10382950;28;20056;-65
2021/07/26 09:55:41;;;;;;;0.10;0.10;;;;;;;26.17;57.62;101136.59;10365561;28;20388;-62
2021/07/26 10:00:44;;;;;;;0.00;0.00;;;;;;;26.03;61.28;101145.44;10371265;28;20029;-61
2021/07/26 10:05:44;;;;;;;0.10;0.10;;;;;;;25.75;59.73;101148.06;10405706;28;20032;-60
2021/07/26 10:10:45;;;;;;;0.10;0.10;;;;;;;25.35;59.55;101152.97;10393000;28;20053;-63
2021/07/26 10:15:45;;;;;;;0.10;0.10;;;;;;;25.05;58.79;101163.09;10368762;28;20381;-61
2021/07/26 10:21:07;;;;;;;0.00;0.00;;;;;;;24.88;61.04;101159.53;10371050;28;20037;-61
2021/07/26 10:26:10;;;;;;;0.00;0.00;;;;;;;24.92;59.89;101168.03;10354986;28;20117;-64
2021/07/26 10:31:34;;;;;;;0.00;0.00;;;;;;;24.97;59.81;101168.94;10362030;28;20305;-61
2021/07/26 10:36:56;;;;;;;0.10;0.10;;;;;;;25.10;60.18;101172.41;10382255;28;20029;-63
2021/07/26 10:41:56;;;;;;;0.10;0.10;;;;;;;25.12;60.50;101165.66;10387552;28;20408;-63
2021/07/26 10:46:57;;;;;;;0.10;0.10;;;;;;;25.06;60.47;101166.66;10371315;28;20045;-65
2021/07/26 10:51:57;;;;;;;0.10;0.10;;;;;;;25.13;63.39;101178.19;10373194;28;20123;-65
2021/07/26 10:57:05;;;;;;;0.00;0.00;;;;;;;25.19;63.51;101170.97;10374407;28;20489;-65
2021/07/26 11:02:06;;;;;;;0.10;0.10;;;;;;;25.11;62.76;101174.91;10373033;28;20025;-64
2021/07/26 11:07:11;;;;;;;0.10;0.10;;;;;;;24.99;63.47;101176.91;10374184;28;20052;-65
2021/07/26 11:12:12;;;;;;;0.00;0.00;;;;;;;25.17;62.72;101163.03;10374138;28;20044;-59
2021/07/26 11:17:12;;;;;;;0.10;0.10;;;;;;;25.33;61.32;101163.28;10375078;28;20120;-61
2021/07/26 11:22:15;;;;;;;0.00;0.00;;;;;;;25.63;61.23;101154.75;10371522;28;20026;-63
2021/07/26 11:27:37;;;;;;;0.10;0.10;;;;;;;25.58;59.73;101151.94;10372036;28;20381;-59
2021/07/26 11:32:39;;;;;;;0.10;0.10;;;;;;;25.75;59.36;101130.91;10381714;28;20053;-61
2021/07/26 11:37:40;;;;;;;0.10;0.10;;;;;;;26.31;58.52;101136.22;10412185;28;20040;-60
2021/07/26 11:42:42;;;;;;;0.10;0.10;;;;;;;27.07;60.04;101125.19;10389339;28;20392;-62
2021/07/26 11:47:44;;;;;;;;;;;;;;;27.12;55.06;101118.94;10372475;28;20033;-62
2021/07/26 11:52:57;;;;;;;0.10;0.10;;;;;;;27.21;53.71;101115.47;10368515;28;19979;-62
2021/07/26 11:57:59;;;;;;;0.10;0.10;;;;;;;27.53;54.07;101112.66;10369084;28;20731;-61
2021/07/26 12:03:01;;;;;;;0.10;0.10;;;;;;;28.03;57.09;101106.88;10369079;28;20547;-61
2021/07/26 12:08:12;;;;;;;;;;;;;;;28.42;55.24;101102.63;10375398;28;20319;-62
2021/07/26 12:13:18;;;;;;;0.00;0.00;;;;;;;28.53;53.85;101097.16;10378174;28;20222;-62
2021/07/26 12:18:18;;;;;;;0.10;0.10;;;;;;;28.22;53.43;101088.88;10370563;28;20038;-62
2021/07/26 12:23:23;;;;;;;0.00;0.00;;;;;;;28.23;53.25;101087.75;10389843;28;20372;-62
2021/07/26 12:28:40;;;;;;;0.10;0.10;;;;;;;28.04;52.04;101089.34;10409220;28;20025;-59
2021/07/26 12:33:41;;;;;;;0.10;0.10;;;;;;;27.80;52.15;101083.53;10408539;28;20033;-62
2021/07/26 12:39:03;;;;;;;0.00;0.00;;;;;;;28.08;55.13;101080.34;10404217;28;20096;-61
2021/07/26 12:44:26;;;;;;;0.10;0.10;;;;;;;28.31;55.09;101081.75;10374144;28;20084;-61
2021/07/26 12:49:26;;;;;;;0.10;0.10;;;;;;;28.57;52.69;101065.38;10369856;28;20125;-62
2021/07/26 12:54:42;;;;;;;0.10;0.10;;;;;;;28.79;54.71;101059.59;10367190;28;20030;-61
2021/07/26 12:59:42;;;;;;;0.05;0.05;;;;;;;28.85;52.24;101047.53;10405708;28;20353;-62
2021/07/26 13:04:42;;;;;;;0.10;0.10;;;;;;;28.76;49.88;101049.19;10407507;28;20040;-61
2021/07/26 13:09:43;;;;;;;0.10;0.10;;;;;;;28.39;49.85;101039.28;10402461;28;20034;-63
2021/07/26 13:14:43;;;;;;;0.10;0.10;;;;;;;28.40;51.94;101033.56;10395281;28;20465;-61
2021/07/26 13:19:43;;;;;;;0.00;0.00;;;;;;;28.03;50.09;101044.72;10366639;28;20065;-61
2021/07/26 13:24:44;;;;;;;0.10;0.10;;;;;;;27.62;50.71;101046.50;10366579;28;20025;-61
2021/07/26 13:29:44;;;;;;;0.00;0.00;;;;;;;27.45;52.75;101049.44;10357269;28;20445;-61
2021/07/26 13:34:44;;;;;;;0.10;0.10;;;;;;;27.33;51.16;101037.88;10368332;28;20505;-62
2021/07/26 13:39:45;;;;;;;0.00;0.00;;;;;;;27.06;56.09;101039.63;10384225;23;20312;-64
2021/07/26 13:44:45;;;;;;;0.00;0.00;;;;;;;26.90;53.86;101023.38;10395875;28;20033;-65
2021/07/26 13:49:45;;;;;;;0.10;0.10;;;;;;;26.96;53.80;101012.22;10386975;28;20029;-64
2021/07/26 13:54:46;;;;;;;0.10;0.10;;;;;;;26.89;56.15;101016.28;10390690;28;20025;-64
2021/07/26 13:59:46;;;;;;;0.10;0.10;;;;;;;27.02;52.24;101010.34;10408468;28;20464;-64
2021/07/26 14:04:48;;;;;;;0.10;0.10;;;;;;;27.49;53.87;101017.72;10408953;28;20022;-65
2021/07/26 14:09:48;;;;;;;0.10;0.10;;;;;;;27.73;49.46;101007.94;10389128;28;20124;-64
2021/07/26 14:14:49;;;;;;;0.10;0.10;;;;;;;27.41;50.73;101010.03;10373404;28;20568;-63
2021/07/26 14:19:49;;;;;;;0.00;0.00;;;;;;;27.61;48.93;101004.63;10375972;28;20408;-65
2021/07/26 14:24:49;;;;;;;0.00;0.00;;;;;;;27.97;48.77;101008.31;10349919;28;20548;-64
2021/07/26 14:29:50;;;;;;;0.00;0.00;;;;;;;28.43;51.18;101000.16;10367821;28;20057;-65
2021/07/26 14:34:50;;;;;;;0.10;0.10;;;;;;;28.97;52.70;101004.19;10367043;28;20281;-64
2021/07/26 14:39:50;;;;;;;0.10;0.10;;;;;;;29.04;48.85;101001.19;10370207;28;20083;-65
2021/07/26 14:44:51;;;;;;;0.10;0.10;;;;;;;28.63;46.24;100996.59;10372910;28;20029;-65
2021/07/26 14:49:51;;;;;;;0.10;0.10;;;;;;;28.21;46.40;100996.81;10369991;28;20388;-64
2021/07/26 14:54:51;;;;;;;0.10;0.10;;;;;;;28.15;46.44;100996.00;10400121;28;20022;-65
2021/07/26 14:59:52;;;;;;;0.10;0.10;;;;;;;28.08;51.47;100992.72;10408007;28;20065;-65
2021/07/26 15:04:52;;;;;;;0.00;0.00;;;;;;;28.15;51.94;100987.78;10406773;28;20029;-65
2021/07/26 15:09:52;;;;;;;0.10;0.10;;;;;;;28.36;45.64;100990.53;10405841;28;20053;-66
2021/07/26 15:14:53;;;;;;;0.10;0.10;;;;;;;28.23;50.39;100985.63;10374583;28;20034;-65
2021/07/26 15:19:53;;;;;;;0.00;0.00;;;;;;;28.02;48.38;100980.13;10366191;28;20076;-66
2021/07/26 15:24:54;;;;;;;0.10;0.10;;;;;;;27.85;48.10;100985.84;10379898;28;20022;-67
2021/07/26 15:29:54;;;;;;;0.00;0.00;;;;;;;27.51;48.34;100985.44;10367905;28;20515;-65
2021/07/26 15:34:54;;;;;;;0.00;0.00;;;;;;;27.23;51.63;100983.97;10412309;28;20500;-67
2021/07/26 15:39:54;;;;;;;0.00;0.00;;;;;;;27.13;52.08;100992.91;10411394;28;20029;-65
2021/07/26 15:44:55;;;;;;;0.00;0.00;;;;;;;27.16;60.55;100989.66;10378816;28;20026;-68
2021/07/26 15:49:55;;;;;;;0.00;0.00;;;;;;;27.45;62.41;100983.78;10374019;28;20467;-68
2021/07/26 15:54:55;;;;;;;0.10;0.10;;;;;;;27.77;57.27;100975.38;10378165;28;20137;-68
2021/07/26 15:59:56;;;;;;;0.10;0.10;;;;;;;27.91;51.65;100973.81;10373444;28;20120;-68
2021/07/26 16:04:57;;;;;;;0.05;0.05;;;;;;;28.13;55.31;100964.50;10371800;28;20541;-69
2021/07/26 16:09:59;;;;;;;0.00;0.00;;;;;;;28.27;51.42;100951.09;10356775;28;20057;-69
2021/07/26 16:15:01;;;;;;;0.00;0.00;;;;;;;28.24;51.86;100955.19;10377832;28;20057;-68
2021/07/26 16:20:03;;;;;;;0.10;0.10;;;;;;;28.13;51.91;100967.25;10374909;28;20030;-68
2021/07/26 16:25:04;;;;;;;0.10;0.10;;;;;;;27.87;51.84;100969.16;10377290;28;20562;-68
2021/07/26 16:30:07;;;;;;;0.10;0.10;;;;;;;27.64;56.69;100982.22;10405292;28;20197;-69
2021/07/26 16:35:13;;;;;;;0.10;0.10;;;;;;;27.50;55.33;100973.69;10370488;28;20374;-69
2021/07/26 16:40:14;;;;;;;0.10;0.10;;;;;;;27.47;59.18;100963.28;10396328;28;20037;-66
2021/07/26 16:45:14;;;;;;;0.10;0.10;;;;;;;27.46;57.14;100964.38;10396356;28;20068;-68
2021/07/26 16:50:17;;;;;;;0.10;0.10;;;;;;;27.31;56.88;100961.56;10374767;28;20394;-68
2021/07/26 16:55:17;;;;;;;0.10;0.10;;;;;;;27.16;57.87;100969.72;10405364;28;20034;-68
2021/07/26 17:00:17;;;;;;;0.10;0.10;;;;;;;26.97;57.30;100959.22;10392212;28;20496;-68
2021/07/26 17:05:18;;;;;;;0.10;0.10;;;;;;;26.75;59.50;100964.00;10398992;28;20260;-68
2021/07/26 17:10:18;;;;;;;0.00;0.00;;;;;;;26.48;58.04;100959.41;10392057;28;20311;-67
2021/07/26 17:15:18;;;;;;;0.10;0.10;;;;;;;26.22;58.87;100957.56;10393569;28;20025;-67
2021/07/26 17:20:19;;;;;;;0.00;0.00;;;;;;;25.86;58.29;100954.50;10392463;28;20030;-67
2021/07/26 17:25:20;;;;;;;0.00;0.00;;;;;;;25.54;60.89;100971.63;10395438;28;20052;-67
2021/07/26 17:30:20;;;;;;;0.03;0.03;;;;;;;25.27;60.25;100960.63;10391801;28;20037;-67
2021/07/26 17:35:21;;;;;;;0.10;0.10;;;;;;;25.10;60.50;100981.63;10391200;28;20276;-67
2021/07/26 17:40:21;;;;;;;0.00;0.00;;;;;;;24.94;60.84;100980.63;10389146;28;20033;-67
2021/07/26 17:45:21;;;;;;;0.10;0.10;;;;;;;24.81;62.12;101004.44;10396570;28;20025;-66
2021/07/26 17:50:26;;;;;;;0.10;0.10;;;;;;;24.57;56.24;101016.56;10388122;28;20034;-66
2021/07/26 17:55:26;;;;;;;0.10;0.10;;;;;;;24.30;56.25;101003.56;10385557;28;20041;-66
2021/07/26 18:00:27;;;;;;;0.10;0.10;;;;;;;24.08;57.46;100999.91;10392247;28;20033;-66
2021/07/26 18:05:27;;;;;;;0.10;0.10;;;;;;;23.91;58.45;100999.84;10390288;28;20021;-67
2021/07/26 18:10:27;;;;;;;0.10;0.10;;;;;;;23.63;60.99;101023.22;10391863;28;20036;-67
2021/07/26 18:15:29;;;;;;;0.00;0.00;;;;;;;23.36;61.92;101030.25;10391464;28;20455;-66
2021/07/26 18:20:29;;;;;;;0.10;0.10;;;;;;;23.13;63.22;101026.53;10396708;28;20030;-66
2021/07/26 18:25:30;;;;;;;0.10;0.10;;;;;;;22.94;62.90;101041.25;10389129;28;20029;-66
2021/07/26 18:30:30;;;;;;;0.10;0.10;;;;;;;22.75;63.74;101052.25;10394647;28;20120;-66
2021/07/26 18:35:31;;;;;;;0.00;0.00;;;;;;;22.55;64.17;101044.41;10381827;28;20508;-66
2021/07/26 18:40:32;;;;;;;0.00;0.00;;;;;;;22.44;63.89;101045.22;10381323;28;20037;-66
2021/07/26 18:45:32;;;;;;;0.00;0.00;;;;;;;;;;10406733;28;20104;-66
2021/07/26 18:50:33;;;;;;;0.10;0.10;;;;;;;22.23;66.19;101043.03;10407978;28;20120;-66
2021/07/26 18:55:34;;;;;;;0.00;0.00;;;;;;;22.09;66.24;101045.91;10410224;28;20080;-66
2021/07/26 19:00:34;;;;;;;0.00;0.00;;;;;;;21.92;68.45;101056.56;10410647;28;20077;-66
2021/07/26 19:05:35;;;;;;;0.00;0.00;;;;;;;21.75;68.13;101050.09;10409749;28;20083;-66
2021/07/26 19:10:39;;;;;;;0.00;0.00;;;;;;;21.54;67.03;101059.53;10417138;28;20033;-66
2021/07/26 19:15:39;;;;;;;0.00;0.00;;;;;;;21.38;65.82;101060.97;10417099;28;20029;-66
2021/07/26 19:20:39;;;;;;;0.10;0.10;;;;;;;21.27;66.62;101067.09;10384863;28;20033;-66
2021/07/26 19:25:40;;;;;;;0.10;0.10;;;;;;;21.19;67.51;101081.75;10389026;28;20026;-66
2021/07/26 19:30:41;;;;;;;0.00;0.00;;;;;;;21.10;67.91;101085.78;10381760;28;20044;-66
2021/07/26 19:35:41;;;;;;;0.00;0.00;;;;;;;20.97;70.65;101086.75;10399834;28;20304;-64
2021/07/26 19:40:42;;;;;;;0.00;0.00;;;;;;;20.65;73.33;101091.34;10429943;23;20057;-93
2021/07/26 19:45:43;;;;;;;0.10;0.10;;;;;;;20.31;74.77;101093.44;10448454;28;20110;-92
2021/07/26 19:50:44;;;;;;;0.10;0.10;;;;;;;20.04;75.80;101108.13;10441015;28;20117;-92
2021/07/26 19:55:45;;;;;;;0.00;0.00;;;;;;;19.81;76.83;101114.03;10411651;28;20087;-93
2021/07/26 20:00:46;;;;;;;0.00;0.00;;;;;;;19.49;78.60;101104.94;10416105;28;20422;-92
2021/07/26 20:05:51;;;;;;;0.10;0.10;;;;;;;19.31;79.37;101116.41;10408209;28;20038;-92
2021/07/26 20:10:51;;;;;;;0.10;0.10;;;;;;;19.12;79.63;101118.94;10382060;28;20057;-85
2021/07/26 20:15:52;;;;;;;0.00;0.00;;;;;;;18.99;80.67;101144.06;10405870;28;20056;-85
2021/07/26 20:20:52;;;;;;;0.10;0.10;;;;;;;18.83;81.26;101144.47;10411528;28;20045;-85
2021/07/26 20:25:53;;;;;;;0.00;0.00;;;;;;;18.61;82.12;101145.63;10416353;28;20272;-85
2021/07/26 20:30:54;;;;;;;0.10;0.10;;;;;;;18.48;83.14;101136.47;10418039;28;20057;-84
2021/07/26 20:35:54;;;;;;;0.10;0.10;;;;;;;18.34;83.66;101134.78;10422849;28;20093;-92
2021/07/26 20:40:56;;;;;;;0.00;0.00;;;;;;;18.15;84.11;101132.81;10401779;28;20037;-92
2021/07/26 20:45:57;;;;;;;0.10;0.10;;;;;;;18.05;84.25;101131.34;10396156;28;20025;-92
2021/07/26 20:50:57;;;;;;;0.10;0.10;;;;;;;18.04;85.59;101134.25;10385713;28;20037;-91
2021/07/26 20:55:58;;;;;;;0.00;0.00;;;;;;;17.92;85.86;101128.59;10396023;28;20040;-92
2021/07/26 21:00:58;;;;;;;0.00;0.00;;;;;;;17.78;86.05;101133.09;10378123;28;20387;-92
2021/07/26 21:05:59;;;;;;;0.10;0.10;;;;;;;17.73;86.37;101132.00;10375088;28;20665;-92
2021/07/26 21:11:00;;;;;;;0.00;0.00;;;;;;;17.74;86.80;101144.41;10374217;28;20030;-93
2021/07/26 21:16:10;;;;;;;0.10;0.10;;;;;;;17.63;87.00;101135.88;10402999;28;20065;-92
2021/07/26 21:21:11;;;;;;;0.00;0.00;;;;;;;17.58;87.67;101129.41;10390054;28;20033;-92
2021/07/26 21:26:11;;;;;;;0.10;0.10;;;;;;;17.58;87.06;101127.56;10389926;28;20604;-92
2021/07/26 21:31:11;;;;;;;0.10;0.10;;;;;;;17.54;87.44;101134.38;10392053;28;20056;-93
2021/07/26 21:36:12;;;;;;;0.03;0.03;;;;;;;17.41;87.96;101140.50;10381280;28;20060;-93
2021/07/26 21:41:12;;;;;;;0.10;0.10;;;;;;;17.38;89.48;101131.97;10401193;28;20034;-92
2021/07/26 21:46:14;;;;;;;0.10;0.10;;;;;;;17.35;87.35;101137.75;10377099;28;20029;-91
2021/07/26 21:51:14;;;;;;;0.10;0.10;;;;;;;17.08;86.93;101156.41;10376503;28;20056;-92
2021/07/26 21:56:15;;;;;;;0.00;0.00;;;;;;;16.95;89.34;101137.44;10408055;28;20378;-92
2021/07/26 22:01:16;;;;;;;0.10;0.10;;;;;;;17.00;89.57;101143.06;10380615;28;20022;-92
2021/07/26 22:06:21;;;;;;;0.10;0.10;;;;;;;17.06;89.94;101155.75;10389700;28;20120;-91
2021/07/26 22:11:21;;;;;;;0.10;0.10;;;;;;;16.88;87.79;101137.38;10385455;28;20033;-92
2021/07/26 22:16:22;;;;;;;0.10;0.10;;;;;;;16.72;90.57;101141.09;10386239;28;20556;-92
2021/07/26 22:21:23;;;;;;;0.10;0.10;;;;;;;16.63;89.94;101123.44;10372093;28;20048;-92
2021/07/26 22:26:24;;;;;;;0.10;0.10;;;;;;;16.61;89.65;101124.66;10389304;28;20367;-93
2021/07/26 22:31:24;;;;;;;0.00;0.00;;;;;;;16.57;89.77;101115.31;10403948;28;20033;-92
2021/07/26 22:36:24;;;;;;;0.07;0.07;;;;;;;16.57;89.90;101123.38;10386951;28;20502;-92
2021/07/26 22:41:25;;;;;;;0.10;0.10;;;;;;;16.52;89.95;101124.78;10399692;28;20060;-91
2021/07/26 22:46:25;;;;;;;0.10;0.10;;;;;;;16.62;90.36;101134.41;10394518;28;20033;-91
2021/07/26 22:51:25;;;;;;;0.10;0.10;;;;;;;16.49;89.70;101119.81;10394693;28;20175;-92
2021/07/26 22:56:26;;;;;;;0.10;0.10;;;;;;;16.41;89.91;101113.72;10360651;28;20033;-93
2021/07/26 23:01:26;;;;;;;0.07;0.07;;;;;;;16.24;89.24;101118.47;10371398;28;20038;-93
2021/07/26 23:06:27;;;;;;;0.10;0.10;;;;;;;16.13;89.11;101114.41;10389849;28;20269;-92
2021/07/26 23:11:27;;;;;;;0.10;0.10;;;;;;;16.05;89.47;101115.34;10396130;28;20589;-93
2021/07/26 23:16:27;;;;;;;0.10;0.10;;;;;;;16.05;90.22;101127.97;10372110;28;20042;-93